Time;durP1;ratioP1;P1;durP2;ratioP2;P2;SDS_P1;SDS_P2;PMS_P1;PMS_P2;Temp;Humidity;BMP_temperature;BMP_pressure;BME280_temperature;BME280_humidity;BME280_pressure;Samples;Min_cycle;Max_cycle;Signal;HPM_P1;HPM_P2
2021/01/02 00:00:23;;;;;;;0.83;0.83;;;6.40;99.90;;;;;;20703003;28;20327;-72
2021/01/02 00:10:31;;;;;;;3.40;2.20;;;6.80;99.90;;;;;;20701606;28;20206;-71
2021/01/02 00:21:10;;;;;;;1.40;1.30;;;6.60;99.90;;;;;;20702753;28;20664;-74
2021/01/02 00:31:50;;;;;;;0.77;0.77;;;6.40;99.90;;;;;;20700889;28;20660;-72
2021/01/02 00:41:54;;;;;;;0.83;0.83;;;6.10;99.90;;;;;;20699749;28;20227;-73
2021/01/02 00:52:11;;;;;;;0.70;0.70;;;5.90;99.90;;;;;;20700474;28;20449;-72
2021/01/02 01:02:36;;;;;;;2.10;2.00;;;5.60;99.90;;;;;;20699508;28;20703;-73
2021/01/02 01:12:43;;;;;;;0.57;0.57;;;5.50;99.90;;;;;;20713583;28;20221;-73
2021/01/02 01:23:06;;;;;;;1.07;0.97;;;5.40;99.90;;;;;;20715820;28;20230;-72
2021/01/02 01:33:12;;;;;;;1.27;0.87;;;5.40;99.90;;;;;;20713380;28;20195;-73
2021/01/02 01:43:26;;;;;;;0.77;0.77;;;5.50;99.90;;;;;;20712277;28;20227;-73
2021/01/02 01:53:58;;;;;;;0.67;0.67;;;5.50;99.90;;;;;;20709607;28;20191;-73
2021/01/02 02:04:39;;;;;;;1.70;0.83;;;5.40;99.90;;;;;;20702177;28;20237;-73
2021/01/02 02:14:50;;;;;;;0.53;0.47;;;5.50;99.90;;;;;;20709437;28;20201;-78
2021/01/02 02:24:53;;;;;;;0.43;0.43;;;5.40;99.90;;;;;;20708468;28;20226;-72
2021/01/02 02:35:00;;;;;;;1.77;1.13;;;5.30;99.90;;;;;;20709487;28;20222;-76
2021/01/02 02:45:08;;;;;;;0.27;0.27;;;5.40;99.90;;;;;;20708199;28;20275;-73
2021/01/02 02:55:13;;;;;;;0.73;0.73;;;5.20;99.90;;;;;;20713163;28;20195;-76
2021/01/02 03:05:18;;;;;;;0.20;0.20;;;4.90;99.90;;;;;;20777119;23;20230;-68
2021/01/02 03:15:25;;;;;;;0.87;0.63;;;4.70;99.90;;;;;;20794794;28;20695;-67
2021/01/02 03:25:28;;;;;;;0.30;0.30;;;5.20;99.90;;;;;;20792213;28;20702;-68
2021/01/02 03:35:32;;;;;;;0.20;0.20;;;5.10;99.90;;;;;;20796956;28;20209;-69
2021/01/02 03:45:34;;;;;;;0.70;0.40;;;4.90;99.90;;;;;;20788887;28;20222;-69
2021/01/02 03:55:38;;;;;;;0.50;0.50;;;4.80;99.90;;;;;;20791378;28;20310;-68
2021/01/02 04:05:44;;;;;;;0.30;0.30;;;4.60;99.90;;;;;;20801442;22;20241;-77
2021/01/02 04:15:48;;;;;;;0.47;0.47;;;4.60;99.90;;;;;;20779979;28;20454;-75
2021/01/02 04:25:50;;;;;;;0.77;0.60;;;4.80;99.90;;;;;;20784925;28;20237;-74
2021/01/02 04:35:54;;;;;;;0.30;0.30;;;4.70;99.90;;;;;;20787448;28;20206;-75
2021/01/02 04:45:58;;;;;;;0.90;0.80;;;4.60;99.90;;;;;;20782674;28;20237;-76
2021/01/02 04:56:05;;;;;;;3.40;1.07;;;4.50;99.90;;;;;;20787504;28;20591;-77
2021/01/02 05:06:08;;;;;;;0.60;0.60;;;4.60;99.90;;;;;;20796019;23;20332;-69
2021/01/02 05:16:20;;;;;;;0.93;0.77;;;4.50;99.90;;;;;;20779466;28;20198;-69
2021/01/02 05:26:23;;;;;;;0.97;0.93;;;4.40;99.90;;;;;;20777627;28;20312;-67
2021/01/02 05:36:29;;;;;;;0.60;0.23;;;4.30;99.90;;;;;;20783096;28;20550;-68
2021/01/02 05:46:33;;;;;;;1.13;0.27;;;4.40;99.90;;;;;;20783815;28;20283;-67
2021/01/02 05:56:47;;;;;;;0.20;0.13;;;4.40;99.90;;;;;;20792369;28;20195;-68
2021/01/02 06:07:07;;;;;;;0.40;0.40;;;4.40;99.90;;;;;;20796098;28;20239;-67
2021/01/02 06:17:14;;;;;;;0.40;0.40;;;4.40;99.90;;;;;;20796986;28;20282;-67
2021/01/02 06:27:17;;;;;;;0.20;0.10;;;4.30;99.90;;;;;;20795085;28;20240;-68
2021/01/02 06:37:22;;;;;;;0.30;0.30;;;4.10;99.90;;;;;;20793411;28;20202;-69
2021/01/02 06:47:32;;;;;;;0.87;0.40;;;4.10;99.90;;;;;;20795362;28;20238;-69
2021/01/02 06:57:36;;;;;;;2.63;1.50;;;4.10;99.90;;;;;;20792458;28;20197;-69
2021/01/02 07:07:39;;;;;;;0.20;0.20;;;4.10;99.90;;;;;;20791298;28;20232;-69
2021/01/02 07:17:43;;;;;;;0.20;0.10;;;3.90;99.90;;;;;;20791275;28;20248;-67
2021/01/02 07:27:47;;;;;;;0.50;0.50;;;4.10;99.90;;;;;;20790857;28;20225;-68
2021/01/02 07:37:54;;;;;;;0.20;0.20;;;3.90;99.90;;;;;;20790656;28;20262;-67
2021/01/02 07:47:58;;;;;;;0.20;0.20;;;4.00;99.90;;;;;;20788393;28;20297;-68
2021/01/02 07:58:04;;;;;;;0.20;0.13;;;4.30;99.90;;;;;;20789840;28;20209;-69
2021/01/02 08:08:07;;;;;;;1.27;1.17;;;4.50;99.90;;;;;;20785080;28;20744;-67
2021/01/02 08:18:11;;;;;;;0.73;0.73;;;4.70;99.90;;;;;;20787665;28;20705;-67
2021/01/02 08:28:14;;;;;;;0.20;0.10;;;4.80;99.90;;;;;;20785867;28;20276;-67
2021/01/02 08:38:19;;;;;;;0.20;0.20;;;5.10;99.90;;;;;;20785877;28;20539;-68
2021/01/02 08:48:21;;;;;;;0.83;0.50;;;5.20;99.90;;;;;;20782674;28;20232;-67
2021/01/02 08:58:32;;;;;;;0.63;0.53;;;5.40;99.90;;;;;;20783114;28;20576;-69
2021/01/02 09:08:34;;;;;;;0.43;0.43;;;5.70;99.90;;;;;;20783174;28;20237;-69
2021/01/02 09:18:45;;;;;;;2.00;1.20;;;6.00;99.90;;;;;;20781161;28;20559;-69
2021/01/02 09:28:50;;;;;;;0.30;0.30;;;6.30;99.90;;;;;;20787867;28;20225;-70
2021/01/02 09:38:54;;;;;;;0.40;0.40;;;6.60;99.90;;;;;;20796108;28;20225;-68
2021/01/02 09:48:59;;;;;;;1.13;0.80;;;6.80;99.90;;;;;;20797413;28;20497;-69
2021/01/02 09:59:01;;;;;;;0.50;0.40;;;7.10;99.90;;;;;;20796346;28;20209;-70
2021/01/02 10:09:05;;;;;;;0.60;0.43;;;7.40;99.90;;;;;;20795762;28;20796;-68
2021/01/02 10:19:11;;;;;;;0.77;0.47;;;7.30;99.90;;;;;;20794678;28;20194;-69
2021/01/02 10:29:14;;;;;;;0.97;0.97;;;7.50;99.90;;;;;;20794175;28;20638;-69
2021/01/02 10:39:17;;;;;;;0.20;0.10;;;7.80;99.90;;;;;;20791693;28;20201;-68
2021/01/02 10:49:22;;;;;;;0.57;0.57;;;8.20;99.90;;;;;;20793943;28;20228;-69
2021/01/02 10:59:25;;;;;;;1.93;1.00;;;8.50;99.90;;;;;;20788741;28;20286;-67
2021/01/02 11:09:28;;;;;;;0.20;0.10;;;8.90;99.90;;;;;;20791035;28;20222;-67
2021/01/02 11:19:31;;;;;;;3.20;0.93;;;9.70;99.90;;;;;;20787981;28;20205;-69
2021/01/02 11:29:34;;;;;;;2.00;1.07;;;10.30;99.90;;;;;;20788903;28;20233;-68
2021/01/02 11:39:37;;;;;;;0.90;0.60;;;11.00;99.90;;;;;;20785110;28;20198;-68
2021/01/02 11:49:41;;;;;;;2.20;2.03;;;11.70;99.90;;;;;;20786628;28;20221;-69
2021/01/02 11:59:44;;;;;;;0.53;0.47;;;13.00;99.90;;;;;;20792050;28;20817;-71
2021/01/02 12:09:49;;;;;;;0.20;0.20;;;14.70;99.90;;;;;;20785616;28;20809;-70
2021/01/02 12:19:53;;;;;;;1.97;0.80;;;15.00;99.90;;;;;;20786304;28;20619;-70
2021/01/02 12:29:56;;;;;;;0.40;0.40;;;15.10;99.90;;;;;;20786067;28;20611;-70
2021/01/02 12:39:59;;;;;;;1.10;1.00;;;14.90;99.90;;;;;;20783037;28;20673;-69
2021/01/02 12:50:03;;;;;;;0.80;0.50;;;14.60;99.90;;;;;;20778150;28;20237;-69
2021/01/02 13:00:10;;;;;;;1.20;0.77;;;14.00;99.90;;;;;;20707934;28;20587;-69
2021/01/02 13:10:14;;;;;;;1.20;1.13;;;12.90;99.90;;;;;;20674508;28;20256;-71
2021/01/02 13:20:17;;;;;;;0.83;0.83;;;12.60;99.90;;;;;;20674525;28;20198;-69
2021/01/02 13:30:21;;;;;;;0.60;0.60;;;12.50;99.90;;;;;;20701736;28;20220;-70
2021/01/02 13:40:23;;;;;;;2.40;1.20;;;11.80;99.90;;;;;;20730820;28;20218;-70
2021/01/02 13:50:27;;;;;;;1.57;1.30;;;10.90;99.90;;;;;;20720122;28;20218;-70
2021/01/02 14:00:30;;;;;;;4.10;2.13;;;10.50;99.90;;;;;;20715204;28;20302;-71
2021/01/02 14:10:33;;;;;;;2.13;0.70;;;10.50;99.90;;;;;;20703789;28;20211;-71
2021/01/02 14:20:36;;;;;;;1.13;0.70;;;10.70;99.90;;;;;;20630542;28;20200;-69
2021/01/02 14:30:39;;;;;;;4.90;1.17;;;10.50;99.90;;;;;;20632010;28;20203;-70
2021/01/02 14:40:42;;;;;;;1.80;0.70;;;10.50;99.90;;;;;;20629959;28;20214;-71
2021/01/02 14:50:46;;;;;;;1.30;0.97;;;10.60;99.90;;;;;;20629975;28;20196;-69
2021/01/02 15:00:48;;;;;;;0.57;0.57;;;10.50;99.90;;;;;;20629797;28;20224;-67
2021/01/02 15:10:52;;;;;;;0.67;0.63;;;10.20;99.90;;;;;;20572837;28;20517;-70
2021/01/02 15:20:56;;;;;;;0.80;0.70;;;9.90;99.90;;;;;;20546081;28;20204;-69
2021/01/02 15:31:00;;;;;;;0.40;0.40;;;9.70;99.90;;;;;;20544468;28;20315;-69
2021/01/02 15:51:21;;;;;;;0.77;0.67;;;9.20;99.90;;;;;;21475825;23;20256;-68
2021/01/02 16:01:24;;;;;;;1.40;1.33;;;9.00;99.90;;;;;;20412537;29;20328;-69
2021/01/02 16:11:30;;;;;;;0.97;0.70;;;8.90;99.90;;;;;;20342279;29;20216;-68
2021/01/02 16:21:35;;;;;;;0.90;0.90;;;8.80;99.90;;;;;;20412743;29;20435;-69
2021/01/02 16:31:47;;;;;;;0.30;0.30;;;8.70;99.90;;;;;;20369799;29;20206;-69
2021/01/02 16:41:49;;;;;;;0.20;0.20;;;8.60;99.90;;;;;;20315686;29;20422;-70
2021/01/02 16:51:58;;;;;;;0.40;0.40;;;8.60;99.90;;;;;;20370147;28;20241;-70
2021/01/02 17:02:01;;;;;;;0.20;0.20;;;8.40;99.90;;;;;;20309456;29;20240;-71
2021/01/02 17:12:08;;;;;;;2.33;1.30;;;8.30;99.90;;;;;;20355736;29;20312;-76
2021/01/02 17:22:11;;;;;;;4.63;1.17;;;8.20;99.90;;;;;;20463425;28;20428;-75
2021/01/02 17:32:16;;;;;;;1.13;1.07;;;7.90;99.90;;;;;;20445891;28;20209;-75
2021/01/02 17:42:21;;;;;;;1.13;0.67;;;7.80;99.90;;;;;;20447584;28;20630;-75
2021/01/02 17:52:24;;;;;;;1.20;1.10;;;7.80;99.90;;;;;;20401851;28;20265;-74
2021/01/02 18:02:28;;;;;;;1.83;1.50;;;7.70;99.90;;;;;;20462799;29;20231;-71
2021/01/02 18:12:33;;;;;;;0.83;0.63;;;7.50;99.90;;;;;;20465167;28;20212;-72
2021/01/02 18:22:35;;;;;;;0.87;0.87;;;7.30;99.90;;;;;;20460895;28;20221;-71
2021/01/02 18:32:39;;;;;;;2.57;1.37;;;7.60;99.90;;;;;;20462932;28;20520;-72
2021/01/02 18:42:42;;;;;;;1.83;1.27;;;7.50;99.90;;;;;;20460981;28;20591;-70
2021/01/02 18:52:46;;;;;;;3.03;0.83;;;7.30;99.90;;;;;;20303635;29;20980;-72
2021/01/02 19:02:48;;;;;;;2.17;1.30;;;7.10;99.90;;;;;;20303850;29;20233;-71
2021/01/02 19:12:52;;;;;;;1.47;0.93;;;7.10;99.90;;;;;;20302756;29;20202;-72
2021/01/02 19:22:55;;;;;;;3.80;1.83;;;7.30;99.90;;;;;;20301233;29;20376;-71
2021/01/02 19:32:59;;;;;;;4.38;1.83;;;7.30;99.90;;;;;;20303609;29;21027;-72
2021/01/02 19:43:01;;;;;;;1.07;0.97;;;7.20;99.90;;;;;;20391745;28;20248;-72
2021/01/02 19:53:05;;;;;;;3.70;1.53;;;7.30;99.90;;;;;;20358903;29;20229;-70
2021/01/02 20:03:07;;;;;;;1.43;1.33;;;7.40;99.90;;;;;;20337050;29;20233;-71
2021/01/02 20:13:12;;;;;;;0.83;0.83;;;7.40;99.90;;;;;;20293737;29;20216;-71
2021/01/02 20:23:15;;;;;;;2.87;2.63;;;7.40;99.90;;;;;;20366206;29;20225;-71
2021/01/02 20:33:19;;;;;;;1.67;1.40;;;7.30;99.90;;;;;;20452447;28;20607;-72
2021/01/02 20:43:21;;;;;;;2.43;2.17;;;7.60;99.90;;;;;;20437006;28;20307;-70
2021/01/02 20:53:25;;;;;;;2.77;1.43;;;7.90;99.90;;;;;;20413009;29;20251;-71
2021/01/02 21:03:27;;;;;;;2.77;2.23;;;8.00;99.90;;;;;;20406095;29;20224;-70
2021/01/02 21:13:31;;;;;;;2.33;2.13;;;8.00;99.90;;;;;;20369004;29;20651;-70
2021/01/02 21:23:34;;;;;;;6.37;1.47;;;7.70;99.90;;;;;;20375712;29;20221;-71
2021/01/02 21:33:37;;;;;;;2.07;1.83;;;7.50;99.90;;;;;;20392624;29;20236;-78
2021/01/02 21:43:39;;;;;;;1.50;1.37;;;7.40;99.90;;;;;;20385594;29;20762;-72
2021/01/02 21:53:46;;;;;;;1.90;1.50;;;7.30;99.90;;;;;;20404207;29;20252;-72
2021/01/02 22:03:49;;;;;;;0.90;0.90;;;7.40;99.90;;;;;;20422615;29;20221;-72
2021/01/02 22:13:53;;;;;;;0.90;0.90;;;7.40;99.90;;;;;;20423759;28;20608;-71
2021/01/02 22:23:56;;;;;;;0.27;0.27;;;7.60;99.90;;;;;;20424024;28;20228;-70
2021/01/02 22:34:00;;;;;;;7.07;1.87;;;7.50;99.90;;;;;;20422374;29;20203;-71
2021/01/02 22:44:03;;;;;;;4.07;2.37;;;7.40;99.90;;;;;;20412865;29;20232;-71
2021/01/02 22:54:07;;;;;;;1.30;1.20;;;7.30;99.90;;;;;;20419382;29;20190;-72
2021/01/02 23:04:09;;;;;;;0.83;0.83;;;7.10;99.90;;;;;;20444733;29;20227;-71
2021/01/02 23:14:16;;;;;;;3.50;1.17;;;6.90;99.90;;;;;;20420194;29;20654;-72
2021/01/02 23:24:18;;;;;;;0.40;0.40;;;6.80;99.90;;;;;;20376515;29;20254;-72
2021/01/02 23:34:22;;;;;;;3.80;1.90;;;6.70;99.90;;;;;;20378357;29;20202;-71
2021/01/02 23:44:27;;;;;;;1.07;0.70;;;6.60;99.90;;;;;;20428392;28;20237;-72
2021/01/02 23:54:31;;;;;;;1.60;1.10;;;6.40;99.90;;;;;;20442064;29;20312;-71
